sensor_id;sensor_type;location;lat;lon;timestamp;pressure;altitude;pressure_sealevel;temperature;humidity
80678;BME280;70042;52.494;5.502;2023-12-22T00:01:06;100171.66;;;18.55;57.40
80678;BME280;70042;52.494;5.502;2023-12-22T00:03:31;100179.59;;;18.55;57.32
80678;BME280;70042;52.494;5.502;2023-12-22T00:05:57;100198.09;;;18.55;57.45
80678;BME280;70042;52.494;5.502;2023-12-22T00:08:22;100215.69;;;18.56;57.03
80678;BME280;70042;52.494;5.502;2023-12-22T00:10:49;100211.38;;;18.54;57.36
80678;BME280;70042;52.494;5.502;2023-12-22T00:13:14;100218.41;;;18.55;57.45
80678;BME280;70042;52.494;5.502;2023-12-22T00:15:40;100214.97;;;18.53;56.93
80678;BME280;70042;52.494;5.502;2023-12-22T00:18:07;100229.97;;;18.52;57.26
80678;BME280;70042;52.494;5.502;2023-12-22T00:20:33;100207.97;;;18.50;57.46
80678;BME280;70042;52.494;5.502;2023-12-22T00:22:58;100215.91;;;18.50;56.90
80678;BME280;70042;52.494;5.502;2023-12-22T00:25:23;100219.50;;;18.49;57.20
80678;BME280;70042;52.494;5.502;2023-12-22T00:27:49;100213.25;;;18.50;57.30
80678;BME280;70042;52.494;5.502;2023-12-22T00:30:14;100237.94;;;18.51;56.88
80678;BME280;70042;52.494;5.502;2023-12-22T00:32:40;100228.22;;;18.51;56.96
80678;BME280;70042;52.494;5.502;2023-12-22T00:35:05;100232.66;;;18.51;56.92
80678;BME280;70042;52.494;5.502;2023-12-22T00:37:31;100219.50;;;18.49;57.29
80678;BME280;70042;52.494;5.502;2023-12-22T00:39:56;100212.44;;;18.48;57.27
80678;BME280;70042;52.494;5.502;2023-12-22T00:42:22;100222.16;;;18.48;57.38
80678;BME280;70042;52.494;5.502;2023-12-22T00:44:47;100221.28;;;18.47;57.29
80678;BME280;70042;52.494;5.502;2023-12-22T00:47:13;100223.88;;;18.49;57.04
80678;BME280;70042;52.494;5.502;2023-12-22T00:49:38;100214.28;;;18.46;57.07
80678;BME280;70042;52.494;5.502;2023-12-22T00:52:04;100217.78;;;18.47;57.02
80678;BME280;70042;52.494;5.502;2023-12-22T00:54:29;100224.00;;;18.46;56.94
80678;BME280;70042;52.494;5.502;2023-12-22T00:56:57;100219.59;;;18.46;56.72
80678;BME280;70042;52.494;5.502;2023-12-22T00:59:23;100218.72;;;18.46;56.96
80678;BME280;70042;52.494;5.502;2023-12-22T01:01:48;100209.91;;;18.45;57.14
80678;BME280;70042;52.494;5.502;2023-12-22T01:04:14;100230.16;;;18.46;56.82
80678;BME280;70042;52.494;5.502;2023-12-22T01:06:40;100231.88;;;18.47;56.67
80678;BME280;70042;52.494;5.502;2023-12-22T01:09:06;100236.28;;;18.47;56.66
80678;BME280;70042;52.494;5.502;2023-12-22T01:11:32;100235.47;;;18.46;56.88
80678;BME280;70042;52.494;5.502;2023-12-22T01:13:57;100222.22;;;18.46;56.94
80678;BME280;70042;52.494;5.502;2023-12-22T01:16:23;100230.16;;;18.46;56.61
80678;BME280;70042;52.494;5.502;2023-12-22T01:18:49;100237.28;;;18.44;57.12
80678;BME280;70042;52.494;5.502;2023-12-22T01:21:16;100233.75;;;18.44;56.93
80678;BME280;70042;52.494;5.502;2023-12-22T01:23:41;100243.56;;;18.42;56.93
80678;BME280;70042;52.494;5.502;2023-12-22T01:26:07;100240.03;;;18.41;56.52
80678;BME280;70042;52.494;5.502;2023-12-22T01:28:33;100247.94;;;18.43;56.54
80678;BME280;70042;52.494;5.502;2023-12-22T01:31:00;100255.00;;;18.42;56.90
80678;BME280;70042;52.494;5.502;2023-12-22T01:33:25;100255.88;;;18.43;56.48
80678;BME280;70042;52.494;5.502;2023-12-22T01:35:50;100271.75;;;18.43;56.73
80678;BME280;70042;52.494;5.502;2023-12-22T01:38:16;100284.09;;;18.42;56.63
80678;BME280;70042;52.494;5.502;2023-12-22T01:40:41;100298.19;;;18.43;56.69
80678;BME280;70042;52.494;5.502;2023-12-22T01:43:07;100314.94;;;18.43;56.86
80678;BME280;70042;52.494;5.502;2023-12-22T01:45:32;100303.53;;;18.41;56.39
80678;BME280;70042;52.494;5.502;2023-12-22T01:47:58;100296.53;;;18.40;56.53
80678;BME280;70042;52.494;5.502;2023-12-22T01:50:24;100258.75;;;18.37;56.49
80678;BME280;70042;52.494;5.502;2023-12-22T01:52:50;100275.47;;;18.37;56.55
80678;BME280;70042;52.494;5.502;2023-12-22T01:55:16;100274.63;;;18.37;56.60
80678;BME280;70042;52.494;5.502;2023-12-22T01:57:43;100269.25;;;18.38;56.60
80678;BME280;70042;52.494;5.502;2023-12-22T02:00:11;100271.09;;;18.36;56.42
80678;BME280;70042;52.494;5.502;2023-12-22T02:02:36;100273.75;;;18.36;56.63
80678;BME280;70042;52.494;5.502;2023-12-22T02:05:04;100273.78;;;18.35;56.50
80678;BME280;70042;52.494;5.502;2023-12-22T02:07:30;100289.63;;;18.36;56.60
80678;BME280;70042;52.494;5.502;2023-12-22T02:09:56;100307.25;;;18.36;56.49
80678;BME280;70042;52.494;5.502;2023-12-22T02:12:21;100313.47;;;18.35;56.67
80678;BME280;70042;52.494;5.502;2023-12-22T02:14:47;100327.53;;;18.35;56.61
80678;BME280;70042;52.494;5.502;2023-12-22T02:17:21;100302.88;;;18.35;56.65
80678;BME280;70042;52.494;5.502;2023-12-22T02:19:48;100288.78;;;18.34;56.34
80678;BME280;70042;52.494;5.502;2023-12-22T02:22:14;100312.66;;;18.33;56.29
80678;BME280;70042;52.494;5.502;2023-12-22T02:24:40;100303.84;;;18.32;56.89
80678;BME280;70042;52.494;5.502;2023-12-22T02:27:17;100301.22;;;18.32;56.66
80678;BME280;70042;52.494;5.502;2023-12-22T02:29:53;100304.75;;;18.31;56.52
80678;BME280;70042;52.494;5.502;2023-12-22T02:32:25;100299.47;;;18.31;56.33
80678;BME280;70042;52.494;5.502;2023-12-22T02:34:53;100290.75;;;18.29;56.15
80678;BME280;70042;52.494;5.502;2023-12-22T02:37:21;100290.75;;;18.29;56.36
80678;BME280;70042;52.494;5.502;2023-12-22T02:39:48;100283.72;;;18.28;56.71
80678;BME280;70042;52.494;5.502;2023-12-22T02:42:14;100278.44;;;18.28;56.76
80678;BME280;70042;52.494;5.502;2023-12-22T02:44:40;100276.72;;;18.27;56.44
80678;BME280;70042;52.494;5.502;2023-12-22T02:47:06;100274.94;;;18.28;56.05
80678;BME280;70042;52.494;5.502;2023-12-22T02:49:31;100283.84;;;18.25;56.44
80678;BME280;70042;52.494;5.502;2023-12-22T02:51:57;100273.25;;;18.25;56.50
80678;BME280;70042;52.494;5.502;2023-12-22T02:54:22;100284.78;;;18.24;56.50
80678;BME280;70042;52.494;5.502;2023-12-22T02:56:47;100287.41;;;18.24;56.15
80678;BME280;70042;52.494;5.502;2023-12-22T02:59:13;100297.13;;;18.24;56.26
80678;BME280;70042;52.494;5.502;2023-12-22T03:01:38;100318.22;;;18.25;56.25
80678;BME280;70042;52.494;5.502;2023-12-22T03:04:04;100277.72;;;18.25;56.30
80678;BME280;70042;52.494;5.502;2023-12-22T03:06:29;100280.41;;;18.23;56.17
80678;BME280;70042;52.494;5.502;2023-12-22T03:08:55;100279.53;;;18.23;56.15
80678;BME280;70042;52.494;5.502;2023-12-22T03:11:20;100267.13;;;18.25;56.24
80678;BME280;70042;52.494;5.502;2023-12-22T03:13:45;100281.19;;;18.25;56.20
80678;BME280;70042;52.494;5.502;2023-12-22T03:16:11;100279.50;;;18.24;56.07
80678;BME280;70042;52.494;5.502;2023-12-22T03:18:39;100285.69;;;18.23;56.14
80678;BME280;70042;52.494;5.502;2023-12-22T03:21:05;100284.88;;;18.21;56.32
80678;BME280;70042;52.494;5.502;2023-12-22T03:23:30;100278.72;;;18.21;56.30
80678;BME280;70042;52.494;5.502;2023-12-22T03:25:56;100276.09;;;18.21;56.29
80678;BME280;70042;52.494;5.502;2023-12-22T03:28:21;100287.53;;;18.21;55.81
80678;BME280;70042;52.494;5.502;2023-12-22T03:30:47;100284.06;;;18.19;56.19
80678;BME280;70042;52.494;5.502;2023-12-22T03:33:12;100281.38;;;18.21;56.04
80678;BME280;70042;52.494;5.502;2023-12-22T03:35:37;100283.06;;;18.22;56.25
80678;BME280;70042;52.494;5.502;2023-12-22T03:38:03;100279.53;;;18.23;55.82
80678;BME280;70042;52.494;5.502;2023-12-22T03:40:28;100281.31;;;18.22;55.82
80678;BME280;70042;52.494;5.502;2023-12-22T03:42:55;100282.25;;;18.21;55.71
80678;BME280;70042;52.494;5.502;2023-12-22T03:45:20;100290.19;;;18.21;55.92
80678;BME280;70042;52.494;5.502;2023-12-22T03:47:46;100291.09;;;18.20;56.33
80678;BME280;70042;52.494;5.502;2023-12-22T03:50:11;100292.84;;;18.20;55.69
80678;BME280;70042;52.494;5.502;2023-12-22T03:52:37;100287.53;;;18.21;55.73
80678;BME280;70042;52.494;5.502;2023-12-22T03:55:02;100285.78;;;18.20;55.83
80678;BME280;70042;52.494;5.502;2023-12-22T03:57:28;100284.94;;;18.20;55.92
80678;BME280;70042;52.494;5.502;2023-12-22T03:59:53;100292.94;;;18.18;55.92
80678;BME280;70042;52.494;5.502;2023-12-22T04:02:19;100295.50;;;18.20;55.96
80678;BME280;70042;52.494;5.502;2023-12-22T04:04:44;100305.22;;;18.19;55.93
80678;BME280;70042;52.494;5.502;2023-12-22T04:07:09;100302.63;;;18.18;56.09
80678;BME280;70042;52.494;5.502;2023-12-22T04:09:37;100307.06;;;18.17;55.97
80678;BME280;70042;52.494;5.502;2023-12-22T04:12:03;100293.88;;;18.16;55.84
80678;BME280;70042;52.494;5.502;2023-12-22T04:14:28;100312.34;;;18.17;56.10
80678;BME280;70042;52.494;5.502;2023-12-22T04:16:54;100311.47;;;18.17;55.82
80678;BME280;70042;52.494;5.502;2023-12-22T04:19:19;100312.38;;;18.16;55.93
80678;BME280;70042;52.494;5.502;2023-12-22T04:21:45;100315.91;;;18.16;55.76
80678;BME280;70042;52.494;5.502;2023-12-22T04:24:10;100314.09;;;18.18;55.82
80678;BME280;70042;52.494;5.502;2023-12-22T04:26:36;100306.19;;;18.17;56.20
80678;BME280;70042;52.494;5.502;2023-12-22T04:29:01;100313.25;;;18.16;55.76
80678;BME280;70042;52.494;5.502;2023-12-22T04:31:27;100313.25;;;18.16;55.83
80678;BME280;70042;52.494;5.502;2023-12-22T04:33:52;100320.38;;;18.14;56.25
80678;BME280;70042;52.494;5.502;2023-12-22T04:36:18;100314.19;;;18.15;56.19
80678;BME280;70042;52.494;5.502;2023-12-22T04:38:43;100308.91;;;18.15;56.11
80678;BME280;70042;52.494;5.502;2023-12-22T04:41:09;100302.69;;;18.16;55.99
80678;BME280;70042;52.494;5.502;2023-12-22T04:43:34;100299.16;;;18.16;55.66
80678;BME280;70042;52.494;5.502;2023-12-22T04:46:00;100303.63;;;18.15;55.64
80678;BME280;70042;52.494;5.502;2023-12-22T04:48:25;100303.63;;;18.15;56.08
80678;BME280;70042;52.494;5.502;2023-12-22T04:50:51;100305.44;;;18.13;55.64
80678;BME280;70042;52.494;5.502;2023-12-22T04:53:16;100323.91;;;18.15;56.00
80678;BME280;70042;52.494;5.502;2023-12-22T04:55:42;100321.28;;;18.13;55.78
80678;BME280;70042;52.494;5.502;2023-12-22T04:58:07;100326.59;;;18.13;55.71
80678;BME280;70042;52.494;5.502;2023-12-22T05:00:32;100320.44;;;18.12;55.82
80678;BME280;70042;52.494;5.502;2023-12-22T05:02:58;100322.22;;;18.12;55.70
80678;BME280;70042;52.494;5.502;2023-12-22T05:05:23;100322.22;;;18.12;55.70
80678;BME280;70042;52.494;5.502;2023-12-22T05:07:48;100305.44;;;18.13;55.62
80678;BME280;70042;52.494;5.502;2023-12-22T05:10:14;100311.59;;;18.13;55.73
80678;BME280;70042;52.494;5.502;2023-12-22T05:12:40;100311.59;;;18.13;55.87
80678;BME280;70042;52.494;5.502;2023-12-22T05:15:05;100317.75;;;18.14;55.94
80678;BME280;70042;52.494;5.502;2023-12-22T05:17:31;100319.47;;;18.15;56.02
80678;BME280;70042;52.494;5.502;2023-12-22T05:19:58;100315.09;;;18.14;55.75
80678;BME280;70042;52.494;5.502;2023-12-22T05:22:23;100317.75;;;18.14;55.72
80678;BME280;70042;52.494;5.502;2023-12-22T05:24:49;100316.00;;;18.13;55.54
80678;BME280;70042;52.494;5.502;2023-12-22T05:27:14;100308.94;;;18.13;55.62
80678;BME280;70042;52.494;5.502;2023-12-22T05:29:40;100307.16;;;18.14;55.81
80678;BME280;70042;52.494;5.502;2023-12-22T05:32:06;100307.16;;;18.14;56.09
80678;BME280;70042;52.494;5.502;2023-12-22T05:34:31;100300.22;;;18.11;55.61
80678;BME280;70042;52.494;5.502;2023-12-22T05:36:57;100308.06;;;18.13;55.86
80678;BME280;70042;52.494;5.502;2023-12-22T05:39:23;100304.56;;;18.12;55.76
80678;BME280;70042;52.494;5.502;2023-12-22T05:41:48;100298.44;;;18.12;55.59
80678;BME280;70042;52.494;5.502;2023-12-22T05:44:13;100308.06;;;18.13;55.73
80678;BME280;70042;52.494;5.502;2023-12-22T05:46:39;100298.44;;;18.12;55.88
80678;BME280;70042;52.494;5.502;2023-12-22T05:49:05;100310.72;;;18.13;55.74
80678;BME280;70042;52.494;5.502;2023-12-22T05:51:40;100322.16;;;18.13;55.94
80678;BME280;70042;52.494;5.502;2023-12-22T05:54:07;100331.88;;;18.13;55.71
80678;BME280;70042;52.494;5.502;2023-12-22T05:56:32;100330.16;;;18.12;56.12
80678;BME280;70042;52.494;5.502;2023-12-22T05:58:58;100323.13;;;18.11;55.47
80678;BME280;70042;52.494;5.502;2023-12-22T06:01:24;100317.84;;;18.11;55.68
80678;BME280;70042;52.494;5.502;2023-12-22T06:03:49;100316.97;;;18.10;55.67
80678;BME280;70042;52.494;5.502;2023-12-22T06:06:15;100324.03;;;18.10;55.81
80678;BME280;70042;52.494;5.502;2023-12-22T06:08:40;100312.56;;;18.11;55.54
80678;BME280;70042;52.494;5.502;2023-12-22T06:11:06;100315.22;;;18.11;56.30
80678;BME280;70042;52.494;5.502;2023-12-22T06:13:31;100305.50;;;18.11;55.94
80678;BME280;70042;52.494;5.502;2023-12-22T06:15:57;100313.38;;;18.13;55.56
80678;BME280;70042;52.494;5.502;2023-12-22T06:18:22;100303.66;;;18.13;55.46
80678;BME280;70042;52.494;5.502;2023-12-22T06:20:48;100311.66;;;18.12;55.44
80678;BME280;70042;52.494;5.502;2023-12-22T06:23:13;100327.53;;;18.12;55.70
80678;BME280;70042;52.494;5.502;2023-12-22T06:25:38;100339.03;;;18.09;55.57
80678;BME280;70042;52.494;5.502;2023-12-22T06:28:04;100333.72;;;18.11;55.58
80678;BME280;70042;52.494;5.502;2023-12-22T06:30:29;100324.13;;;18.08;55.30
80678;BME280;70042;52.494;5.502;2023-12-22T06:32:55;100320.53;;;18.09;55.59
80678;BME280;70042;52.494;5.502;2023-12-22T06:35:21;100312.69;;;18.08;55.20
80678;BME280;70042;52.494;5.502;2023-12-22T06:37:49;100327.66;;;18.07;55.37
80678;BME280;70042;52.494;5.502;2023-12-22T06:40:15;100330.28;;;18.09;55.23
80678;BME280;70042;52.494;5.502;2023-12-22T06:42:40;100333.81;;;18.08;55.75
80678;BME280;70042;52.494;5.502;2023-12-22T06:45:06;100340.84;;;18.09;55.80
80678;BME280;70042;52.494;5.502;2023-12-22T06:47:32;100334.69;;;18.08;55.59
80678;BME280;70042;52.494;5.502;2023-12-22T06:49:57;100334.69;;;18.08;55.70
80678;BME280;70042;52.494;5.502;2023-12-22T06:52:23;100335.63;;;18.06;55.84
80678;BME280;70042;52.494;5.502;2023-12-22T06:54:48;100321.50;;;18.07;55.45
80678;BME280;70042;52.494;5.502;2023-12-22T06:57:14;100315.34;;;18.06;55.81
80678;BME280;70042;52.494;5.502;2023-12-22T06:59:39;100314.56;;;18.04;55.97
80678;BME280;70042;52.494;5.502;2023-12-22T07:02:05;100306.63;;;18.04;55.27
80678;BME280;70042;52.494;5.502;2023-12-22T07:07:48;100316.28;;;18.05;55.85
80678;BME280;70042;52.494;5.502;2023-12-22T07:10:14;100321.63;;;18.04;55.61
80678;BME280;70042;52.494;5.502;2023-12-22T07:12:39;100318.06;;;18.05;55.58
80678;BME280;70042;52.494;5.502;2023-12-22T07:15:07;100319.78;;;18.06;55.51
80678;BME280;70042;52.494;5.502;2023-12-22T07:17:34;100325.94;;;18.06;55.88
80678;BME280;70042;52.494;5.502;2023-12-22T07:19:59;100323.25;;;18.08;55.65
80678;BME280;70042;52.494;5.502;2023-12-22T07:22:25;100315.34;;;18.06;55.67
80678;BME280;70042;52.494;5.502;2023-12-22T07:24:50;100313.66;;;18.05;55.23
80678;BME280;70042;52.494;5.502;2023-12-22T07:27:18;100309.19;;;18.06;55.37
80678;BME280;70042;52.494;5.502;2023-12-22T07:29:43;100310.13;;;18.05;55.85
80678;BME280;70042;52.494;5.502;2023-12-22T07:32:09;100314.56;;;18.04;55.80
80678;BME280;70042;52.494;5.502;2023-12-22T07:34:34;100311.91;;;18.04;55.43
80678;BME280;70042;52.494;5.502;2023-12-22T07:36:59;100315.34;;;18.06;55.22
80678;BME280;70042;52.494;5.502;2023-12-22T07:39:25;100308.28;;;18.07;55.72
80678;BME280;70042;52.494;5.502;2023-12-22T07:41:50;100311.81;;;18.07;55.53
80678;BME280;70042;52.494;5.502;2023-12-22T07:44:16;100321.50;;;18.07;55.47
80678;BME280;70042;52.494;5.502;2023-12-22T07:46:41;100317.97;;;18.08;55.74
80678;BME280;70042;52.494;5.502;2023-12-22T07:49:07;100312.78;;;18.05;55.34
80678;BME280;70042;52.494;5.502;2023-12-22T07:51:32;100325.06;;;18.06;55.24
80678;BME280;70042;52.494;5.502;2023-12-22T07:53:58;100324.22;;;18.05;55.60
80678;BME280;70042;52.494;5.502;2023-12-22T07:56:23;100324.22;;;18.05;55.65
80678;BME280;70042;52.494;5.502;2023-12-22T07:58:49;100319.84;;;18.04;55.37
80678;BME280;70042;52.494;5.502;2023-12-22T08:01:15;100317.19;;;18.04;55.52
80678;BME280;70042;52.494;5.502;2023-12-22T08:03:40;100314.56;;;18.04;55.66
80678;BME280;70042;52.494;5.502;2023-12-22T08:06:06;100315.47;;;18.03;55.72
80678;BME280;70042;52.494;5.502;2023-12-22T08:08:33;100305.75;;;18.04;55.63
80678;BME280;70042;52.494;5.502;2023-12-22T08:10:59;100305.66;;;18.07;55.16
80678;BME280;70042;52.494;5.502;2023-12-22T08:13:25;100305.66;;;18.07;55.18
80678;BME280;70042;52.494;5.502;2023-12-22T08:15:50;100297.78;;;18.05;55.71
80678;BME280;70042;52.494;5.502;2023-12-22T08:18:16;100290.69;;;18.06;55.76
80678;BME280;70042;52.494;5.502;2023-12-22T08:20:41;100289.78;;;18.07;55.61
80678;BME280;70042;52.494;5.502;2023-12-22T08:23:07;100281.06;;;18.05;55.48
80678;BME280;70042;52.494;5.502;2023-12-22T08:25:32;100303.19;;;18.02;55.48
80678;BME280;70042;52.494;5.502;2023-12-22T08:27:58;100287.31;;;18.02;55.49
80678;BME280;70042;52.494;5.502;2023-12-22T08:30:23;100272.25;;;18.04;55.77
80678;BME280;70042;52.494;5.502;2023-12-22T08:32:50;100282.88;;;18.03;55.47
80678;BME280;70042;52.494;5.502;2023-12-22T08:35:15;100266.91;;;18.06;55.62
80678;BME280;70042;52.494;5.502;2023-12-22T08:37:42;100270.41;;;18.06;55.87
80678;BME280;70042;52.494;5.502;2023-12-22T08:40:07;100265.09;;;18.08;56.16
80678;BME280;70042;52.494;5.502;2023-12-22T08:42:33;100264.97;;;18.11;55.97
80678;BME280;70042;52.494;5.502;2023-12-22T08:44:58;100272.84;;;18.12;55.73
80678;BME280;70042;52.494;5.502;2023-12-22T08:47:24;100264.88;;;18.14;55.21
80678;BME280;70042;52.494;5.502;2023-12-22T08:49:50;100264.88;;;18.14;55.58
80678;BME280;70042;52.494;5.502;2023-12-22T08:52:15;100252.50;;;18.15;55.26
80678;BME280;70042;52.494;5.502;2023-12-22T08:54:41;100272.69;;;18.17;56.23
80678;BME280;70042;52.494;5.502;2023-12-22T08:57:06;100262.03;;;18.19;55.88
80678;BME280;70042;52.494;5.502;2023-12-22T08:59:31;100262.09;;;18.17;55.54
80678;BME280;70042;52.494;5.502;2023-12-22T09:01:57;100277.06;;;18.18;55.51
80678;BME280;70042;52.494;5.502;2023-12-22T09:04:22;100272.69;;;18.17;55.68
80678;BME280;70042;52.494;5.502;2023-12-22T09:06:49;100266.53;;;18.17;55.76
80678;BME280;70042;52.494;5.502;2023-12-22T09:09:15;100269.94;;;18.20;55.80
80678;BME280;70042;52.494;5.502;2023-12-22T09:11:40;100275.22;;;18.20;55.82
80678;BME280;70042;52.494;5.502;2023-12-22T09:14:06;100273.38;;;18.22;55.79
80678;BME280;70042;52.494;5.502;2023-12-22T09:16:35;100275.00;;;18.26;55.40
80678;BME280;70042;52.494;5.502;2023-12-22T09:19:01;100283.84;;;18.25;55.91
80678;BME280;70042;52.494;5.502;2023-12-22T09:21:26;100287.41;;;18.24;55.63
80678;BME280;70042;52.494;5.502;2023-12-22T09:23:51;100277.75;;;18.23;56.09
80678;BME280;70042;52.494;5.502;2023-12-22T09:26:17;100270.69;;;18.24;56.07
80678;BME280;70042;52.494;5.502;2023-12-22T09:28:44;100282.16;;;18.23;55.71
80678;BME280;70042;52.494;5.502;2023-12-22T09:31:09;100277.78;;;18.22;55.56
80678;BME280;70042;52.494;5.502;2023-12-22T09:33:35;100284.81;;;18.23;56.81
80678;BME280;70042;52.494;5.502;2023-12-22T09:36:01;100285.66;;;18.25;56.04
80678;BME280;70042;52.494;5.502;2023-12-22T09:38:26;100276.84;;;18.24;55.75
80678;BME280;70042;52.494;5.502;2023-12-22T09:40:53;100282.03;;;18.27;56.28
80678;BME280;70042;52.494;5.502;2023-12-22T09:43:19;100282.03;;;18.27;56.33
80678;BME280;70042;52.494;5.502;2023-12-22T09:45:49;100273.16;;;18.28;56.15
80678;BME280;70042;52.494;5.502;2023-12-22T09:48:17;100271.22;;;18.33;56.50
80678;BME280;70042;52.494;5.502;2023-12-22T09:50:43;100277.38;;;18.34;56.12
80678;BME280;70042;52.494;5.502;2023-12-22T09:53:12;100271.09;;;18.36;56.25
80678;BME280;70042;52.494;5.502;2023-12-22T09:55:42;100285.19;;;18.37;56.17
80678;BME280;70042;52.494;5.502;2023-12-22T09:58:08;100289.63;;;18.36;56.75
80678;BME280;70042;52.494;5.502;2023-12-22T10:00:35;100281.69;;;18.36;56.75
80678;BME280;70042;52.494;5.502;2023-12-22T10:03:01;100277.25;;;18.37;56.42
80678;BME280;70042;52.494;5.502;2023-12-22T10:05:27;100281.69;;;18.36;56.75
80678;BME280;70042;52.494;5.502;2023-12-22T10:07:53;100281.56;;;18.39;56.90
80678;BME280;70042;52.494;5.502;2023-12-22T10:10:19;100283.31;;;18.40;57.15
80678;BME280;70042;52.494;5.502;2023-12-22T10:12:45;100292.16;;;18.39;57.26
80678;BME280;70042;52.494;5.502;2023-12-22T10:15:12;100291.16;;;18.42;57.11
80678;BME280;70042;52.494;5.502;2023-12-22T10:17:39;100294.72;;;18.41;56.94
80678;BME280;70042;52.494;5.502;2023-12-22T10:20:05;100293.75;;;18.43;57.07
80678;BME280;70042;52.494;5.502;2023-12-22T10:22:31;100309.63;;;18.43;57.21
80678;BME280;70042;52.494;5.502;2023-12-22T10:24:56;100312.28;;;18.43;56.90
80678;BME280;70042;52.494;5.502;2023-12-22T10:27:22;100313.06;;;18.45;56.95
80678;BME280;70042;52.494;5.502;2023-12-22T10:29:54;100308.66;;;18.46;56.79
80678;BME280;70042;52.494;5.502;2023-12-22T10:32:20;100306.13;;;18.43;57.38
80678;BME280;70042;52.494;5.502;2023-12-22T10:34:45;100307.91;;;18.42;57.49
80678;BME280;70042;52.494;5.502;2023-12-22T10:37:10;100299.06;;;18.43;57.44
80678;BME280;70042;52.494;5.502;2023-12-22T10:39:38;100303.53;;;18.41;57.09
80678;BME280;70042;52.494;5.502;2023-12-22T10:42:04;100285.00;;;18.41;57.22
80678;BME280;70042;52.494;5.502;2023-12-22T10:44:30;100291.28;;;18.39;56.89
80678;BME280;70042;52.494;5.502;2023-12-22T10:46:57;100286.84;;;18.39;57.32
80678;BME280;70042;52.494;5.502;2023-12-22T10:49:23;100295.69;;;18.38;56.72
80678;BME280;70042;52.494;5.502;2023-12-22T10:51:49;100284.22;;;18.39;57.19
80678;BME280;70042;52.494;5.502;2023-12-22T10:54:16;100276.19;;;18.41;56.87
80678;BME280;70042;52.494;5.502;2023-12-22T10:56:42;100289.50;;;18.39;57.08
80678;BME280;70042;52.494;5.502;2023-12-22T10:59:10;100278.13;;;18.37;57.39
80678;BME280;70042;52.494;5.502;2023-12-22T11:01:37;100284.25;;;18.38;56.81
80678;BME280;70042;52.494;5.502;2023-12-22T11:04:06;100275.53;;;18.36;56.81
80678;BME280;70042;52.494;5.502;2023-12-22T11:06:36;100272.91;;;18.34;58.11
80678;BME280;70042;52.494;5.502;2023-12-22T11:09:06;100267.63;;;18.34;57.35
80678;BME280;70042;52.494;5.502;2023-12-22T11:11:37;100255.34;;;18.33;58.11
80678;BME280;70042;52.494;5.502;2023-12-22T11:14:04;100268.56;;;18.33;58.21
80678;BME280;70042;52.494;5.502;2023-12-22T11:16:31;100281.78;;;18.33;57.65
80678;BME280;70042;52.494;5.502;2023-12-22T11:18:58;100268.59;;;18.32;57.31
80678;BME280;70042;52.494;5.502;2023-12-22T11:21:25;100262.44;;;18.31;57.22
80678;BME280;70042;52.494;5.502;2023-12-22T11:23:52;100252.84;;;18.29;57.11
80678;BME280;70042;52.494;5.502;2023-12-22T11:26:18;100245.03;;;18.26;57.04
80678;BME280;70042;52.494;5.502;2023-12-22T11:28:48;100248.66;;;18.23;57.95
80678;BME280;70042;52.494;5.502;2023-12-22T11:31:15;100245.09;;;18.24;58.05
80678;BME280;70042;52.494;5.502;2023-12-22T11:33:45;100239.94;;;18.21;58.02
80678;BME280;70042;52.494;5.502;2023-12-22T11:36:14;100234.47;;;18.26;58.01
80678;BME280;70042;52.494;5.502;2023-12-22T11:38:40;100228.31;;;18.25;57.72
80678;BME280;70042;52.494;5.502;2023-12-22T11:41:09;100229.13;;;18.27;57.94
80678;BME280;70042;52.494;5.502;2023-12-22T11:43:37;100231.66;;;18.30;58.16
80678;BME280;70042;52.494;5.502;2023-12-22T11:46:03;100236.88;;;18.32;58.33
80678;BME280;70042;52.494;5.502;2023-12-22T11:48:30;100223.59;;;18.33;58.27
80678;BME280;70042;52.494;5.502;2023-12-22T11:50:55;100226.94;;;18.38;58.11
80678;BME280;70042;52.494;5.502;2023-12-22T11:53:22;100217.22;;;18.39;58.24
80678;BME280;70042;52.494;5.502;2023-12-22T11:56:01;100218.94;;;18.40;58.04
80678;BME280;70042;52.494;5.502;2023-12-22T12:01:03;100213.53;;;18.43;58.45
80678;BME280;70042;52.494;5.502;2023-12-22T12:03:30;100206.41;;;18.45;58.50
80678;BME280;70042;52.494;5.502;2023-12-22T12:08:43;100195.69;;;18.48;58.35
80678;BME280;70042;52.494;5.502;2023-12-22T12:11:09;100207.16;;;18.48;58.43
80678;BME280;70042;52.494;5.502;2023-12-22T12:13:39;100200.03;;;18.50;57.95
80678;BME280;70042;52.494;5.502;2023-12-22T12:16:06;100193.91;;;18.50;58.31
80678;BME280;70042;52.494;5.502;2023-12-22T12:18:32;100184.16;;;18.50;58.07
80678;BME280;70042;52.494;5.502;2023-12-22T12:20:59;100189.50;;;18.49;58.02
80678;BME280;70042;52.494;5.502;2023-12-22T12:23:25;100175.41;;;18.48;58.45
80678;BME280;70042;52.494;5.502;2023-12-22T12:25:52;100172.75;;;18.48;58.27
80678;BME280;70042;52.494;5.502;2023-12-22T12:28:34;100171.09;;;18.46;58.11
80678;BME280;70042;52.494;5.502;2023-12-22T12:31:06;100178.22;;;18.44;57.82
80678;BME280;70042;52.494;5.502;2023-12-22T12:33:32;100199.44;;;18.42;57.88
80678;BME280;70042;52.494;5.502;2023-12-22T12:35:59;100188.91;;;18.41;57.96
80678;BME280;70042;52.494;5.502;2023-12-22T12:41:10;100175.75;;;18.39;58.30
80678;BME280;70042;52.494;5.502;2023-12-22T12:43:42;100194.31;;;18.38;58.32
80678;BME280;70042;52.494;5.502;2023-12-22T12:46:08;100183.81;;;18.36;57.85
80678;BME280;70042;52.494;5.502;2023-12-22T12:48:34;100193.69;;;18.31;57.26
80678;BME280;70042;52.494;5.502;2023-12-22T12:51:06;100184.16;;;18.27;57.31
80678;BME280;70042;52.494;5.502;2023-12-22T12:53:32;100187.81;;;18.25;57.72
80678;BME280;70042;52.494;5.502;2023-12-22T12:55:59;100182.56;;;18.23;57.31